createdAt,value
2023-03-13T00:02:32.509Z,61.02
2023-03-13T00:05:36.127Z,60.43
2023-03-13T00:08:52.473Z,61.34
2023-03-13T00:12:01.057Z,61.63
2023-03-13T00:15:09.486Z,61.73
2023-03-13T00:18:18.102Z,62.10
2023-03-13T00:21:29.478Z,62.99
2023-03-13T00:24:46.407Z,63.25
2023-03-13T00:28:01.456Z,63.31
2023-03-13T00:31:13.515Z,63.72
2023-03-13T00:34:22.092Z,63.62
2023-03-13T00:37:38.528Z,63.44
2023-03-13T00:40:54.496Z,63.05
2023-03-13T00:44:03.293Z,63.32
2023-03-13T00:47:18.493Z,63.89
2023-03-13T00:50:27.477Z,63.56
2023-03-13T00:53:42.493Z,63.80
2023-03-13T00:56:51.165Z,63.50
2023-03-13T01:00:05.490Z,63.22
2023-03-13T01:03:16.674Z,63.61
2023-03-13T01:06:35.475Z,63.36
2023-03-13T01:09:44.099Z,63.78
2023-03-13T01:12:58.466Z,63.97
2023-03-13T01:16:22.533Z,64.64
2023-03-13T01:19:31.053Z,65.39
2023-03-13T01:22:39.490Z,66.31
2023-03-13T01:25:56.181Z,67.31
2023-03-13T01:29:11.514Z,67.78
2023-03-13T01:32:20.198Z,68.47
2023-03-13T01:35:35.521Z,67.48
2023-03-13T01:38:50.502Z,67.46
2023-03-13T01:41:59.382Z,68.12
2023-03-13T01:45:07.482Z,67.79
2023-03-13T01:48:16.277Z,68.28
2023-03-13T01:51:34.489Z,68.44
2023-03-13T01:54:51.845Z,68.97
2023-03-13T01:58:07.478Z,68.92
2023-03-13T02:01:09.998Z,69.19
2023-03-13T02:04:27.480Z,69.40
2023-03-13T02:07:56.483Z,69.87
2023-03-13T02:11:25.499Z,70.23
2023-03-13T02:14:29.110Z,70.65
2023-03-13T02:17:46.487Z,70.97
2023-03-13T02:20:52.322Z,71.46
2023-03-13T02:24:31.487Z,71.81
2023-03-13T02:27:40.474Z,71.95
2023-03-13T02:30:54.275Z,72.12
2023-03-13T02:34:10.466Z,72.04
2023-03-13T02:37:20.792Z,72.40
2023-03-13T02:40:40.475Z,72.48
2023-03-13T02:43:42.349Z,72.44
2023-03-13T02:46:59.628Z,72.15
2023-03-13T02:50:01.778Z,71.88
2023-03-13T02:53:19.495Z,72.25
2023-03-13T02:56:31.476Z,72.15
2023-03-13T02:59:40.268Z,72.24
2023-03-13T03:02:49.512Z,72.11
2023-03-13T03:06:04.520Z,72.78
2023-03-13T03:09:06.636Z,72.95
2023-03-13T03:12:21.489Z,73.23
2023-03-13T03:15:30.229Z,73.78
2023-03-13T03:22:30.469Z,74.24
2023-03-13T03:25:45.779Z,74.45
2023-03-13T03:28:54.487Z,74.90
2023-03-13T03:32:09.473Z,75.20
2023-03-13T03:35:11.404Z,76.13
2023-03-13T03:38:26.483Z,76.73
2023-03-13T03:41:35.477Z,77.53
2023-03-13T03:44:44.074Z,78.38
2023-03-13T03:47:58.493Z,79.09
2023-03-13T03:51:00.562Z,79.60
2023-03-13T03:54:16.497Z,79.81
2023-03-13T03:57:18.443Z,80.57
2023-03-13T04:00:34.495Z,80.95
2023-03-13T04:03:43.595Z,81.00
2023-03-13T04:06:58.474Z,81.17
2023-03-13T04:10:14.462Z,81.52
2023-03-13T04:13:42.457Z,81.48
2023-03-13T04:16:57.507Z,81.85
2023-03-13T04:20:06.512Z,81.97
2023-03-13T04:23:21.459Z,82.21
2023-03-13T04:26:29.488Z,82.47
2023-03-13T04:29:44.480Z,81.78
2023-03-13T04:32:53.179Z,82.18
2023-03-13T04:36:01.537Z,82.30
2023-03-13T04:39:10.150Z,82.45
2023-03-13T04:42:24.455Z,82.75
2023-03-13T04:45:32.479Z,83.05
2023-03-13T04:48:41.280Z,83.51
2023-03-13T04:51:50.471Z,83.86
2023-03-13T04:54:59.045Z,84.15
2023-03-13T04:58:13.479Z,84.00
2023-03-13T05:01:16.162Z,84.27
2023-03-13T05:04:31.475Z,84.48
2023-03-13T05:07:33.395Z,85.24
2023-03-13T05:10:49.484Z,84.54
2023-03-13T05:13:57.475Z,84.74
2023-03-13T05:17:06.117Z,84.48
2023-03-13T05:20:23.495Z,84.41
2023-03-13T05:23:31.474Z,84.43
2023-03-13T05:26:46.463Z,84.52
2023-03-13T05:29:55.315Z,84.58
2023-03-13T05:33:03.575Z,84.90
2023-03-13T05:36:12.219Z,84.91
2023-03-13T05:39:27.452Z,84.99
2023-03-13T05:42:42.476Z,84.64
2023-03-13T05:45:57.465Z,84.78
2023-03-13T05:49:06.488Z,84.82
2023-03-13T05:52:15.104Z,84.99
2023-03-13T05:55:29.508Z,85.46
2023-03-13T05:58:44.470Z,85.39
2023-03-13T06:01:53.631Z,85.69
2023-03-13T06:05:02.481Z,85.49
2023-03-13T06:08:11.088Z,85.16
2023-03-13T06:11:19.460Z,84.93
2023-03-13T06:14:34.489Z,85.11
2023-03-13T06:17:43.093Z,84.61
2023-03-13T06:20:51.469Z,84.30
2023-03-13T06:24:07.302Z,84.33
2023-03-13T06:27:15.474Z,84.09
2023-03-13T06:30:32.489Z,82.85
2023-03-13T06:33:41.140Z,83.12
2023-03-13T06:36:56.513Z,82.00
2023-03-13T06:40:12.480Z,80.94
2023-03-13T06:43:14.717Z,79.43
2023-03-13T06:46:30.486Z,79.47
2023-03-13T06:49:45.744Z,77.83
2023-03-13T06:52:54.442Z,75.91
2023-03-13T06:56:16.733Z,75.48
2023-03-13T06:59:34.439Z,75.25
2023-03-13T07:02:48.004Z,74.66
2023-03-13T07:06:06.488Z,75.24
2023-03-13T07:09:15.037Z,73.77
2023-03-13T07:28:14.468Z,70.92
2023-03-13T07:31:23.352Z,69.98
2023-03-13T07:34:31.456Z,70.10
2023-03-13T07:37:40.099Z,68.09
2023-03-13T07:40:58.462Z,67.00
2023-03-13T07:44:07.270Z,66.03
2023-03-13T07:47:15.461Z,65.75
2023-03-13T07:50:30.528Z,64.33
2023-03-13T07:53:32.947Z,62.98
2023-03-13T07:56:47.478Z,62.59
2023-03-13T08:00:37.030Z,61.17
2023-03-13T08:03:52.507Z,60.45
2023-03-13T08:06:54.422Z,59.35
2023-03-13T08:10:09.504Z,58.52
2023-03-13T08:13:11.668Z,56.50
2023-03-13T08:16:32.572Z,57.33
2023-03-13T08:19:41.471Z,56.11
2023-03-13T08:27:00.518Z,54.80
2023-03-13T08:33:42.452Z,53.85
2023-03-13T08:36:51.418Z,53.16
2023-03-13T08:40:44.576Z,52.67
2023-03-13T08:44:00.672Z,52.60
2023-03-13T08:47:05.632Z,51.79
2023-03-13T08:50:20.456Z,51.21
2023-03-13T08:53:22.635Z,50.43
2023-03-13T08:56:38.439Z,49.33
2023-03-13T08:59:53.469Z,49.58
2023-03-13T09:02:58.236Z,48.67
2023-03-13T09:06:14.475Z,46.44
2023-03-13T09:09:24.500Z,46.34
2023-03-13T09:12:39.460Z,45.71
2023-03-13T09:15:41.646Z,45.01
2023-03-13T09:19:00.068Z,45.95
2023-03-13T09:22:14.461Z,44.64
2023-03-13T09:25:16.861Z,45.31
2023-03-13T09:28:39.858Z,44.25
2023-03-13T09:31:54.505Z,44.93
2023-03-13T09:35:01.064Z,44.60
2023-03-13T09:43:00.735Z,43.29
2023-03-13T09:46:32.747Z,42.94
2023-03-13T09:49:58.523Z,43.96
2023-03-13T09:53:34.496Z,43.22
2023-03-13T09:56:51.104Z,42.96
2023-03-13T10:00:20.653Z,42.32
2023-03-13T10:03:41.502Z,42.62
2023-03-13T10:06:46.027Z,42.28
2023-03-13T10:10:56.564Z,43.11
2023-03-13T10:14:15.738Z,41.74
2023-03-13T10:17:44.561Z,41.41
2023-03-13T10:21:10.548Z,41.78
2023-03-13T10:25:08.963Z,41.76
2023-03-13T10:28:35.495Z,41.94
2023-03-13T10:31:59.756Z,41.19
2023-03-13T10:35:09.691Z,40.81
2023-03-13T10:38:22.780Z,41.73
2023-03-13T10:41:37.189Z,40.55
2023-03-13T10:48:44.564Z,40.19
2023-03-13T10:56:21.520Z,39.27
2023-03-13T10:59:36.500Z,39.39
2023-03-13T11:02:46.876Z,37.34
2023-03-13T11:06:17.118Z,39.07
2023-03-13T11:09:35.542Z,39.33
2023-03-13T11:17:31.550Z,39.82
2023-03-13T11:24:58.573Z,41.12
2023-03-13T11:37:01.532Z,41.11
2023-03-13T11:40:25.826Z,39.93
2023-03-13T11:43:52.909Z,39.99
2023-03-13T11:47:53.546Z,39.69
2023-03-13T11:51:49.532Z,39.16
2023-03-13T11:55:10.593Z,39.58
2023-03-13T11:58:25.272Z,40.09
2023-03-13T12:01:48.627Z,40.47
2023-03-13T12:05:15.574Z,40.32
2023-03-13T12:16:25.594Z,39.98
2023-03-13T12:19:52.572Z,40.76
2023-03-13T12:23:28.518Z,41.61
2023-03-13T12:26:47.331Z,42.30
2023-03-13T12:30:25.749Z,42.11
2023-03-13T12:33:47.567Z,42.64
2023-03-13T12:37:02.995Z,42.61
2023-03-13T12:40:53.560Z,42.60
2023-03-13T12:44:09.594Z,42.93
2023-03-13T12:47:22.519Z,41.98
2023-03-13T12:50:45.582Z,41.96
2023-03-13T12:53:56.196Z,41.90
2023-03-13T13:01:46.668Z,40.22
2023-03-13T13:13:21.572Z,41.39
2023-03-13T13:16:33.616Z,40.50
2023-03-13T13:19:48.590Z,40.49
2023-03-13T13:22:52.600Z,41.58
2023-03-13T13:30:09.608Z,42.08
2023-03-13T13:33:34.571Z,41.60
2023-03-13T13:36:48.601Z,42.23
2023-03-13T13:47:50.604Z,41.81
2023-03-13T13:55:30.592Z,43.34
2023-03-13T13:58:44.103Z,42.88
2023-03-13T14:01:54.655Z,43.23
2023-03-13T14:05:16.613Z,42.90
2023-03-13T14:08:43.594Z,42.86
2023-03-13T14:11:58.626Z,43.54
2023-03-13T14:15:27.061Z,42.80
2023-03-13T14:18:41.623Z,43.35
2023-03-13T14:21:57.616Z,44.60
2023-03-13T14:25:06.646Z,44.87
2023-03-13T14:28:25.146Z,45.64
2023-03-13T14:31:36.676Z,45.71
2023-03-13T14:34:51.603Z,46.48
2023-03-13T14:38:10.610Z,45.95
2023-03-13T14:41:45.552Z,46.74
2023-03-13T14:45:00.636Z,47.26
2023-03-13T14:48:54.702Z,47.49
2023-03-13T14:59:58.603Z,46.68
2023-03-13T15:03:23.639Z,46.25
2023-03-13T15:06:32.679Z,46.14
2023-03-13T15:09:49.647Z,45.98
2023-03-13T15:13:05.625Z,45.96
2023-03-13T15:16:17.986Z,46.16
2023-03-13T15:19:26.627Z,46.74
2023-03-13T15:22:44.680Z,46.90
2023-03-13T15:25:47.100Z,47.76
2023-03-13T15:29:02.640Z,47.18
2023-03-13T15:32:45.958Z,48.15
2023-03-13T15:35:56.878Z,48.63
2023-03-13T15:39:18.380Z,48.22
2023-03-13T15:42:29.530Z,48.79
2023-03-13T15:45:38.746Z,48.78
2023-03-13T15:48:48.142Z,49.03
2023-03-13T15:51:57.891Z,49.67
2023-03-13T15:55:13.683Z,50.11
2023-03-13T15:58:22.653Z,50.83
2023-03-13T16:01:37.731Z,51.63
2023-03-13T16:04:46.458Z,51.87
2023-03-13T16:08:02.673Z,52.38
2023-03-13T16:11:05.752Z,52.32
2023-03-13T16:14:20.729Z,52.32
2023-03-13T16:17:29.670Z,52.52
2023-03-13T16:20:39.127Z,52.61
2023-03-13T16:23:48.223Z,53.53
2023-03-13T16:27:04.678Z,53.68
2023-03-13T16:30:22.684Z,54.23
2023-03-13T16:33:37.970Z,54.59
2023-03-13T16:36:46.676Z,55.09
2023-03-13T16:39:55.334Z,55.29
2023-03-13T16:43:04.781Z,55.24
2023-03-13T16:46:19.981Z,55.48
2023-03-13T16:49:34.679Z,55.34
2023-03-13T16:52:43.581Z,55.33
2023-03-13T16:55:58.808Z,55.77
2023-03-13T16:59:08.978Z,55.75
2023-03-13T17:02:26.709Z,55.87
2023-03-13T17:05:41.768Z,55.83
2023-03-13T17:08:57.712Z,56.44
2023-03-13T17:12:06.901Z,57.00
2023-03-13T17:15:22.711Z,56.72
2023-03-13T17:18:24.738Z,56.55
2023-03-13T17:21:41.914Z,56.55
2023-03-13T17:24:56.704Z,57.04
2023-03-13T17:28:06.151Z,56.44
2023-03-13T17:31:21.786Z,56.66
2023-03-13T17:34:36.756Z,56.61
2023-03-13T17:37:52.961Z,56.56
2023-03-13T17:41:07.695Z,57.12
2023-03-13T17:44:22.714Z,57.16
2023-03-13T17:47:27.355Z,57.54
2023-03-13T17:50:43.845Z,57.41
2023-03-13T17:53:53.698Z,57.24
2023-03-13T17:57:04.061Z,57.36
2023-03-13T18:00:21.799Z,57.68
2023-03-13T18:03:37.148Z,57.53
2023-03-13T18:06:47.893Z,58.09
2023-03-13T18:10:02.930Z,58.63
2023-03-13T18:13:12.282Z,58.49
2023-03-13T18:16:35.877Z,58.76
2023-03-13T18:19:51.934Z,59.45
2023-03-13T18:23:00.980Z,59.40
2023-03-13T18:26:27.779Z,59.85
2023-03-13T18:29:30.157Z,59.69
2023-03-13T18:32:53.155Z,59.60
2023-03-13T18:36:01.500Z,59.98
2023-03-13T18:39:11.155Z,60.57
2023-03-13T18:42:25.727Z,60.93
2023-03-13T18:45:35.226Z,60.58
2023-03-13T18:48:51.073Z,61.00
2023-03-13T18:51:59.467Z,61.45
2023-03-13T18:55:16.076Z,61.37
2023-03-13T18:58:24.879Z,61.62
2023-03-13T19:01:37.218Z,61.82
2023-03-13T19:04:52.737Z,61.88
2023-03-13T19:08:04.908Z,61.34
2023-03-13T19:11:14.211Z,61.17
2023-03-13T19:14:23.025Z,61.22
2023-03-13T19:17:33.138Z,61.28
2023-03-13T19:20:42.038Z,60.68
2023-03-13T19:23:59.242Z,61.06
2023-03-13T19:27:14.257Z,61.45
2023-03-13T19:30:24.828Z,61.82
2023-03-13T19:33:41.221Z,61.56
2023-03-13T19:36:57.217Z,62.20
2023-03-13T19:40:06.262Z,62.21
2023-03-13T19:43:15.774Z,62.17
2023-03-13T19:46:35.212Z,62.55
2023-03-13T19:49:45.284Z,62.53
2023-03-13T19:53:01.233Z,62.33
2023-03-13T19:56:22.788Z,62.59
2023-03-13T19:59:32.136Z,62.37
2023-03-13T20:02:47.848Z,62.46
2023-03-13T20:06:04.221Z,62.29
2023-03-13T20:09:11.926Z,62.58
2023-03-13T20:12:29.331Z,62.42
2023-03-13T20:15:38.664Z,62.87
2023-03-13T20:18:48.246Z,61.23
2023-03-13T20:21:58.597Z,61.05
2023-03-13T20:25:07.283Z,61.22
2023-03-13T20:28:23.376Z,60.37
2023-03-13T20:31:31.989Z,60.42
2023-03-13T20:34:54.216Z,59.97
2023-03-13T20:38:03.359Z,59.95
2023-03-13T20:41:19.199Z,59.24
2023-03-13T20:44:36.227Z,59.16
2023-03-13T20:47:38.818Z,58.34
2023-03-13T20:51:02.009Z,58.49
2023-03-13T20:54:11.316Z,58.07
2023-03-13T20:57:22.275Z,56.64
2023-03-13T21:00:31.934Z,56.66
2023-03-13T21:03:42.201Z,55.87
2023-03-13T21:06:58.490Z,55.57
2023-03-13T21:10:08.604Z,55.21
2023-03-13T21:13:24.050Z,56.05
2023-03-13T21:16:32.895Z,55.89
2023-03-13T21:19:41.639Z,55.50
2023-03-13T21:22:51.213Z,54.43
2023-03-13T21:25:59.868Z,55.55
2023-03-13T21:29:15.815Z,54.68
2023-03-13T21:32:31.536Z,54.60
2023-03-13T21:35:47.229Z,53.98
2023-03-13T21:39:01.846Z,55.28
2023-03-13T21:42:18.821Z,55.79
2023-03-13T21:45:26.818Z,54.59
2023-03-13T21:48:41.810Z,54.96
2023-03-13T21:51:50.484Z,55.94
2023-03-13T21:54:58.813Z,54.73
2023-03-13T21:58:13.802Z,56.31
2023-03-13T22:01:28.822Z,56.08
2023-03-13T22:04:31.641Z,55.77
2023-03-13T22:07:46.814Z,54.94
2023-03-13T22:10:55.606Z,56.13
2023-03-13T22:14:03.822Z,55.17
2023-03-13T22:17:12.408Z,56.00
2023-03-13T22:20:28.845Z,56.24
2023-03-13T22:23:37.521Z,56.71
2023-03-13T22:26:52.845Z,55.67
2023-03-13T22:29:54.787Z,56.93
2023-03-13T22:33:16.812Z,56.41
2023-03-13T22:36:25.411Z,57.11
2023-03-13T22:39:42.812Z,57.46
2023-03-13T22:42:51.808Z,57.60
2023-03-13T22:46:07.810Z,57.94
2023-03-13T22:49:22.814Z,57.49
2023-03-13T22:52:24.860Z,57.83
2023-03-13T22:55:39.819Z,57.89
2023-03-13T22:58:48.757Z,58.33
2023-03-13T23:01:56.808Z,58.11
2023-03-13T23:05:05.540Z,59.19
2023-03-13T23:08:22.833Z,57.77
2023-03-13T23:11:30.865Z,58.08
2023-03-13T23:14:45.843Z,59.36
2023-03-13T23:17:54.523Z,58.61
2023-03-13T23:21:18.850Z,58.29
2023-03-13T23:24:20.813Z,59.29
2023-03-13T23:27:35.846Z,58.81
2023-03-13T23:30:44.924Z,58.81
2023-03-13T23:33:59.842Z,58.66
2023-03-13T23:37:14.863Z,59.77
2023-03-13T23:40:31.837Z,60.53
2023-03-13T23:43:47.878Z,59.11
2023-03-13T23:46:57.174Z,59.68
2023-03-13T23:50:12.864Z,59.87
2023-03-13T23:53:16.625Z,60.55
2023-03-13T23:56:31.866Z,60.89
2023-03-13T23:59:33.775Z,60.50
